Time;durP1;ratioP1;P1;durP2;ratioP2;P2;SDS_P1;SDS_P2;PMS_P1;PMS_P2;Temp;Humidity;BMP_temperature;BMP_pressure;BME280_temperature;BME280_humidity;BME280_pressure;Samples;Min_cycle;Max_cycle;Signal;HPM_P1;HPM_P2
2022/01/06 00:01:57;;;;;;;8.70;7.07;;;;;;;14.75;41.99;100101.97;5029799;28;20424;-70
2022/01/06 00:04:24;;;;;;;9.35;6.47;;;;;;;14.87;41.65;100093.66;5029300;28;20441;-69
2022/01/06 00:06:51;;;;;;;6.65;5.63;;;;;;;14.87;41.68;100091.81;5029733;28;20501;-71
2022/01/06 00:09:19;;;;;;;8.50;6.40;;;;;;;14.77;42.01;100094.66;5011918;28;20932;-69
2022/01/06 00:11:46;;;;;;;9.60;7.63;;;;;;;14.83;41.95;100093.16;5029464;28;20454;-69
2022/01/06 00:14:19;;;;;;;8.75;7.20;;;;;;;14.75;42.11;100104.66;5029617;28;20493;-69
2022/01/06 00:17:02;;;;;;;9.15;7.22;;;;;;;14.85;41.74;100106.31;5029384;28;20433;-69
2022/01/06 00:24:57;;;;;;;9.43;7.63;;;;;;;14.76;41.64;100118.81;5028401;28;20525;-69
2022/01/06 00:27:24;;;;;;;9.57;7.45;;;;;;;14.68;42.02;100110.81;5028618;28;20445;-69
2022/01/06 00:29:51;;;;;;;10.82;8.27;;;;;;;14.70;41.81;100111.47;5028250;28;20928;-70
2022/01/06 00:32:19;;;;;;;13.82;10.20;;;;;;;14.61;42.08;100116.81;5028695;28;20520;-69
2022/01/06 00:34:46;;;;;;;15.97;11.90;;;;;;;14.63;42.25;100116.66;5029215;28;20847;-69
2022/01/06 00:37:14;;;;;;;16.90;13.87;;;;;;;14.51;42.40;100116.13;5029644;28;20496;-69
2022/01/06 00:39:41;;;;;;;12.23;10.93;;;;;;;14.49;42.57;100115.47;5029361;28;20420;-69
2022/01/06 00:42:08;;;;;;;11.10;9.50;;;;;;;14.44;42.46;100120.50;5029179;28;20890;-70
2022/01/06 00:44:35;;;;;;;13.50;10.20;;;;;;;14.43;42.52;100121.47;5011567;28;20600;-69
2022/01/06 00:47:02;;;;;;;15.80;13.85;;;;;;;14.37;42.70;100122.13;5029554;28;20501;-69
2022/01/06 00:49:31;;;;;;;14.68;11.88;;;;;;;14.35;42.68;100116.16;5029330;28;21002;-70
2022/01/06 00:51:57;;;;;;;11.68;9.25;;;;;;;14.38;42.24;100126.47;5029068;28;20497;-69
2022/01/06 00:54:24;;;;;;;11.53;9.10;;;;;;;14.37;42.52;100116.81;5029007;28;20639;-69
2022/01/06 00:56:51;;;;;;;13.77;10.57;;;;;;;14.45;42.18;100115.97;5028933;28;20498;-69
2022/01/06 00:59:18;;;;;;;12.67;9.87;;;;;;;14.51;41.86;100124.13;5029277;28;20418;-69
2022/01/06 01:01:45;;;;;;;13.48;10.82;;;;;;;14.48;42.06;100127.16;5029120;28;20410;-69
2022/01/06 01:04:12;;;;;;;12.15;10.32;;;;;;;14.46;42.01;100123.00;5028890;28;20497;-70
2022/01/06 01:06:40;;;;;;;11.10;9.60;;;;;;;14.48;41.88;100119.16;5028914;28;20445;-70
2022/01/06 01:09:07;;;;;;;7.72;6.57;;;;;;;14.55;41.60;100120.13;5029152;28;20445;-69
2022/01/06 01:11:34;;;;;;;9.32;6.88;;;;;;;14.41;41.94;100129.63;5029341;28;20411;-69
2022/01/06 01:14:16;;;;;;;12.95;9.15;;;;;;;14.25;42.71;100126.13;5028781;28;20425;-69
2022/01/06 01:16:52;;;;;;;8.73;5.28;;;;;;;14.32;42.42;100116.50;5029161;28;20418;-69
2022/01/06 01:19:20;;;;;;;6.43;4.60;;;;;;;14.68;41.93;100110.81;5028946;28;20418;-69
2022/01/06 01:21:49;;;;;;;6.38;4.57;;;;;;;14.88;41.15;100111.28;5029117;28;20524;-68
2022/01/06 01:24:16;;;;;;;6.93;5.22;;;;;;;14.74;41.78;100102.16;5043923;28;20422;-70
2022/01/06 01:26:43;;;;;;;8.50;5.00;;;;;;;14.98;40.96;100104.78;5028622;28;20757;-69
2022/01/06 01:29:15;;;;;;;6.40;4.90;;;;;;;15.01;40.99;100104.44;5028879;28;20494;-69
2022/01/06 01:31:45;;;;;;;5.85;4.25;;;;;;;14.98;41.09;100096.78;5028738;28;20501;-69
2022/01/06 01:34:13;;;;;;;6.75;4.50;;;;;;;15.02;40.74;100108.78;5030256;28;20857;-69
2022/01/06 01:36:40;;;;;;;7.40;4.38;;;;;;;15.23;40.55;100104.72;5032162;28;20415;-70
2022/01/06 01:39:08;;;;;;;5.07;4.30;;;;;;;15.16;40.32;100106.38;5032212;28;20402;-69
2022/01/06 01:41:35;;;;;;;6.85;4.70;;;;;;;15.18;40.59;100101.72;5032080;28;20414;-69
2022/01/06 01:44:05;;;;;;;7.53;4.82;;;;;;;15.14;40.55;100090.53;5032042;28;20901;-69
2022/01/06 01:46:41;;;;;;;5.53;4.40;;;;;;;15.08;40.54;100087.75;5032070;28;20449;-69
2022/01/06 01:49:28;;;;;;;8.13;4.32;;;;;;;15.02;40.80;100089.25;5032174;28;20430;-69
2022/01/06 01:51:55;;;;;;;5.80;4.40;;;;;;;14.97;40.95;100084.44;5031900;28;20410;-69
2022/01/06 01:54:23;;;;;;;7.63;4.80;;;;;;;15.01;40.74;100079.59;5031815;28;20506;-69
2022/01/06 01:56:52;;;;;;;5.97;4.50;;;;;;;14.91;41.20;100073.63;5031819;28;20417;-69
2022/01/06 01:59:19;;;;;;;7.93;5.78;;;;;;;14.65;42.02;100073.84;5031792;28;20497;-70
2022/01/06 02:01:46;;;;;;;5.78;4.80;;;;;;;14.64;42.14;100070.38;5047011;28;20916;-69
2022/01/06 02:04:13;;;;;;;6.47;4.88;;;;;;;14.57;42.23;100066.69;5032034;28;20417;-69
2022/01/06 02:06:41;;;;;;;7.57;5.10;;;;;;;14.65;42.32;100066.69;5031524;28;20436;-69
2022/01/06 02:09:07;;;;;;;6.03;4.90;;;;;;;14.56;42.23;100068.53;5031657;28;20506;-69
2022/01/06 02:11:36;;;;;;;5.35;4.70;;;;;;;14.63;42.35;100058.03;5031836;28;20418;-69
2022/01/06 02:14:05;;;;;;;6.27;5.00;;;;;;;14.62;42.24;100062.53;5031628;28;20505;-69
2022/01/06 02:16:33;;;;;;;7.15;5.00;;;;;;;14.74;41.96;100062.16;5031412;28;20432;-69
2022/01/06 02:19:00;;;;;;;7.90;5.43;;;;;;;14.83;41.94;100047.81;5031540;28;20415;-69
2022/01/06 02:21:28;;;;;;;7.28;5.90;;;;;;;14.91;41.67;100058.44;5031370;28;20904;-69
2022/01/06 02:23:56;;;;;;;10.55;7.78;;;;;;;14.96;41.70;100057.94;5031255;28;20402;-70
2022/01/06 02:26:23;;;;;;;10.90;7.97;;;;;;;14.78;41.96;100064.34;5031443;28;20437;-69
2022/01/06 02:28:50;;;;;;;9.38;6.18;;;;;;;14.63;42.00;100050.84;5031091;28;20505;-70
2022/01/06 02:31:17;;;;;;;6.72;5.00;;;;;;;14.43;42.43;100052.19;5031191;28;20796;-69
2022/01/06 02:33:44;;;;;;;5.88;4.43;;;;;;;14.37;42.59;100045.69;5031418;28;20449;-69
2022/01/06 02:36:11;;;;;;;6.63;4.47;;;;;;;14.30;42.72;100038.56;5046671;28;20418;-69
2022/01/06 02:38:39;;;;;;;6.13;4.93;;;;;;;14.31;42.64;100045.53;5031103;28;20422;-69
2022/01/06 02:41:06;;;;;;;7.68;5.20;;;;;;;14.42;42.36;100031.88;5031017;28;20505;-69
2022/01/06 02:43:34;;;;;;;9.32;5.40;;;;;;;14.41;42.65;100048.84;5031227;28;20489;-69
2022/01/06 02:46:01;;;;;;;9.50;7.00;;;;;;;14.47;42.61;100040.19;5030131;28;20488;-70
2022/01/06 02:48:29;;;;;;;11.38;8.18;;;;;;;14.68;41.94;100046.84;5030971;28;20415;-69
2022/01/06 02:50:56;;;;;;;14.70;11.23;;;;;;;14.83;41.78;100043.31;5031186;28;20414;-69
2022/01/06 02:53:23;;;;;;;9.52;6.88;;;;;;;14.83;41.68;100050.47;5046562;28;20418;-69
2022/01/06 02:55:53;;;;;;;8.40;6.65;;;;;;;14.79;41.52;100054.50;5030674;28;20406;-69
2022/01/06 02:58:21;;;;;;;8.88;6.50;;;;;;;14.79;41.77;100054.50;5030565;28;20863;-69
2022/01/06 03:00:49;;;;;;;10.85;9.30;;;;;;;14.73;41.94;100053.34;5030689;28;20445;-69
2022/01/06 03:03:16;;;;;;;9.10;8.07;;;;;;;14.41;42.46;100047.00;5030490;28;20501;-69
2022/01/06 03:05:43;;;;;;;10.45;7.43;;;;;;;14.44;42.56;100045.88;5030325;28;20434;-69
2022/01/06 03:08:10;;;;;;;10.35;7.10;;;;;;;14.40;42.60;100049.88;5030488;28;20995;-69
2022/01/06 03:10:41;;;;;;;11.15;7.70;;;;;;;14.38;42.47;100051.88;5030565;28;20424;-69
2022/01/06 03:13:10;;;;;;;14.20;9.55;;;;;;;14.43;42.28;100057.50;5030340;28;20425;-70
2022/01/06 03:15:37;;;;;;;9.63;6.53;;;;;;;14.48;42.14;100047.19;5030179;28;20410;-69
2022/01/06 03:18:04;;;;;;;8.82;6.22;;;;;;;14.55;42.01;100050.00;5030351;28;20920;-69
2022/01/06 03:20:31;;;;;;;13.25;10.95;;;;;;;14.30;42.51;100054.53;5030556;28;20421;-69
2022/01/06 03:22:59;;;;;;;10.88;8.50;;;;;;;14.43;42.22;100046.84;5030148;28;20796;-69
2022/01/06 03:25:26;;;;;;;10.68;8.00;;;;;;;14.46;42.29;100048.38;5029948;28;20947;-69
2022/01/06 03:27:53;;;;;;;7.57;6.50;;;;;;;14.31;42.45;100054.34;5045946;28;20411;-69
2022/01/06 03:30:23;;;;;;;8.65;6.43;;;;;;;14.23;42.64;100049.03;5030534;28;20425;-69
2022/01/06 03:32:51;;;;;;;6.00;5.30;;;;;;;14.30;42.38;100043.88;5030059;28;20489;-69
2022/01/06 03:35:21;;;;;;;7.43;5.95;;;;;;;14.51;41.86;100046.00;5045612;28;20414;-69
2022/01/06 03:37:48;;;;;;;158.32;129.18;;;;;;;14.62;41.38;100037.72;5029873;28;20426;-69
2022/01/06 03:40:16;;;;;;;104.22;84.55;;;;;;;14.69;41.21;100038.69;5045173;28;20501;-69
2022/01/06 03:42:43;;;;;;;7.13;6.20;;;;;;;14.48;41.37;100041.03;5029833;28;20410;-70
2022/01/06 03:45:13;;;;;;;13.93;12.43;;;;;;;14.72;40.98;100040.16;5029793;28;20501;-69
2022/01/06 03:47:42;;;;;;;5.57;4.32;;;;;;;14.92;40.22;100052.13;5029739;28;20898;-69
2022/01/06 03:50:11;;;;;;;11.30;10.18;;;;;;;14.99;40.15;100054.94;5030148;28;20410;-69
2022/01/06 03:52:38;;;;;;;11.43;10.07;;;;;;;14.93;40.41;100061.78;5029691;28;20504;-70
2022/01/06 03:55:07;;;;;;;8.18;6.32;;;;;;;14.92;40.36;100053.94;5029993;28;20421;-69
2022/01/06 03:57:35;;;;;;;10.05;8.02;;;;;;;14.61;41.23;100058.19;5028961;28;20437;-70
2022/01/06 04:00:03;;;;;;;8.95;7.45;;;;;;;14.76;40.52;100058.34;5029497;28;20418;-70
2022/01/06 04:02:30;;;;;;;9.93;8.82;;;;;;;14.67;40.83;100062.00;5029336;28;20456;-69
2022/01/06 04:04:58;;;;;;;6.70;4.85;;;;;;;14.81;40.49;100058.63;5030081;28;20493;-69
2022/01/06 04:07:25;;;;;;;12.73;10.80;;;;;;;14.41;41.15;100067.50;5029374;28;20453;-69
2022/01/06 04:09:52;;;;;;;16.13;13.00;;;;;;;14.62;40.76;100059.88;5029703;28;20410;-70
2022/01/06 04:12:19;;;;;;;17.25;15.18;;;;;;;14.30;41.70;100075.84;5029153;28;20944;-70
2022/01/06 04:14:46;;;;;;;12.35;11.05;;;;;;;14.47;41.54;100077.50;5029540;28;20978;-70
2022/01/06 04:17:13;;;;;;;11.73;10.10;;;;;;;14.20;42.01;100079.50;5011704;28;20843;-69
2022/01/06 04:19:40;;;;;;;10.20;8.77;;;;;;;14.18;42.28;100072.69;5029532;28;20418;-70
2022/01/06 04:22:08;;;;;;;12.70;8.10;;;;;;;14.05;42.47;100080.31;5029656;28;20425;-69
2022/01/06 04:24:35;;;;;;;12.85;10.30;;;;;;;13.67;43.58;100086.09;5029052;28;20406;-69
2022/01/06 04:27:03;;;;;;;12.73;9.95;;;;;;;13.37;43.86;100096.31;5029443;28;20442;-69
2022/01/06 04:29:30;;;;;;;15.43;9.70;;;;;;;13.39;44.06;100081.00;5029522;28;20530;-69
2022/01/06 04:31:57;;;;;;;13.07;10.40;;;;;;;12.96;45.08;100093.44;5029199;28;20804;-69
2022/01/06 04:34:24;;;;;;;18.92;14.98;;;;;;;12.67;45.46;100092.91;5029409;28;20521;-69
2022/01/06 04:36:54;;;;;;;21.77;18.27;;;;;;;12.37;46.31;100097.69;5029486;28;20489;-69
2022/01/06 04:39:23;;;;;;;26.08;20.80;;;;;;;12.19;46.86;100110.97;5029079;28;20410;-70
2022/01/06 04:41:50;;;;;;;19.80;17.00;;;;;;;12.28;46.61;100117.19;5029193;28;20513;-69
2022/01/06 04:44:17;;;;;;;22.73;19.10;;;;;;;11.92;47.56;100139.28;5029318;28;20489;-69
2022/01/06 04:46:44;;;;;;;22.73;19.48;;;;;;;11.42;48.29;100140.47;5029155;28;20434;-69
2022/01/06 04:49:11;;;;;;;23.20;19.00;;;;;;;10.95;49.77;100134.38;5029055;28;20425;-69
2022/01/06 04:51:38;;;;;;;21.43;18.70;;;;;;;10.85;50.04;100141.50;5028904;28;20816;-69
2022/01/06 04:54:05;;;;;;;21.98;18.27;;;;;;;10.61;50.62;100140.16;5028856;28;20429;-70
2022/01/06 04:56:36;;;;;;;22.33;17.95;;;;;;;10.54;51.16;100136.38;5029069;28;20418;-69
2022/01/06 04:59:04;;;;;;;28.02;23.05;;;;;;;10.59;51.16;100145.59;5029090;28;20476;-70
2022/01/06 05:01:31;;;;;;;20.73;17.85;;;;;;;10.38;51.70;100151.06;5029213;28;20418;-70
2022/01/06 05:03:58;;;;;;;21.77;17.67;;;;;;;10.12;52.83;100152.56;5029116;28;20414;-71
2022/01/06 05:06:26;;;;;;;22.63;17.77;;;;;;;10.12;53.04;100155.19;5028826;28;20541;-70
2022/01/06 05:08:53;;;;;;;23.23;18.57;;;;;;;10.06;53.30;100156.56;5029460;28;20420;-69
2022/01/06 05:11:20;;;;;;;21.67;19.35;;;;;;;9.61;54.67;100160.50;5032646;28;20414;-70
2022/01/06 05:13:49;;;;;;;23.90;20.63;;;;;;;9.37;55.85;100163.50;5032558;28;20414;-70
2022/01/06 05:16:16;;;;;;;24.20;21.60;;;;;;;9.41;55.83;100169.34;5015024;28;20500;-70
2022/01/06 05:18:43;;;;;;;26.45;21.58;;;;;;;9.25;56.41;100167.19;5014169;28;20429;-70
2022/01/06 05:21:10;;;;;;;27.17;23.77;;;;;;;9.34;56.26;100170.84;5032586;28;20406;-71
2022/01/06 05:23:38;;;;;;;25.73;22.97;;;;;;;9.40;55.64;100159.72;5032235;28;20422;-71
2022/01/06 05:26:05;;;;;;;22.70;19.33;;;;;;;9.29;55.79;100160.66;5031995;28;20524;-70
2022/01/06 05:28:32;;;;;;;22.27;19.33;;;;;;;9.28;55.72;100155.50;5031677;28;20422;-70
2022/01/06 05:31:01;;;;;;;24.50;20.30;;;;;;;9.14;55.91;100151.41;5032306;28;20486;-70
2022/01/06 05:33:28;;;;;;;25.80;21.05;;;;;;;9.13;55.84;100147.09;5031869;28;20402;-70
2022/01/06 05:35:55;;;;;;;25.57;22.13;;;;;;;9.03;56.28;100153.16;5031518;28;20512;-71
2022/01/06 05:38:22;;;;;;;25.67;22.87;;;;;;;9.23;55.84;100162.03;5031972;28;20502;-69
2022/01/06 05:40:48;;;;;;;25.98;22.58;;;;;;;9.27;55.74;100173.19;5031613;28;20453;-71
2022/01/06 05:43:15;;;;;;;30.17;24.25;;;;;;;9.08;55.86;100181.81;5031734;28;20912;-70
2022/01/06 05:45:42;;;;;;;31.52;25.88;;;;;;;8.93;56.45;100194.53;5031511;28;20414;-70
2022/01/06 05:48:11;;;;;;;32.97;28.10;;;;;;;8.67;57.34;100188.81;5031048;28;20918;-70
2022/01/06 05:50:38;;;;;;;33.58;28.60;;;;;;;8.44;57.92;100192.53;5029861;28;20432;-72
2022/01/06 05:53:05;;;;;;;30.20;26.50;;;;;;;8.50;57.62;100187.56;5031686;28;20426;-70
2022/01/06 05:55:32;;;;;;;36.08;27.27;;;;;;;8.59;57.42;100202.63;5031478;28;20423;-70
2022/01/06 05:57:59;;;;;;;35.15;29.45;;;;;;;8.45;57.97;100200.28;5031394;28;20457;-71
2022/01/06 06:00:25;;;;;;;39.42;31.63;;;;;;;8.37;58.07;100208.84;5031592;28;20493;-69
2022/01/06 06:02:52;;;;;;;37.97;30.88;;;;;;;8.32;58.43;100194.31;5031361;28;20874;-71
2022/01/06 06:05:21;;;;;;;37.85;31.88;;;;;;;8.53;57.77;100197.84;5031264;28;20509;-70
2022/01/06 06:07:48;;;;;;;35.25;31.00;;;;;;;8.68;57.23;100201.06;5031104;28;20927;-70
2022/01/06 06:10:15;;;;;;;37.00;31.38;;;;;;;8.38;58.43;100199.94;5031075;28;20411;-69
2022/01/06 06:12:42;;;;;;;36.42;31.48;;;;;;;8.35;58.57;100208.13;5031298;28;20421;-69
2022/01/06 06:15:09;;;;;;;38.25;32.35;;;;;;;8.61;57.89;100208.63;5031309;28;20493;-69
2022/01/06 06:17:36;;;;;;;39.40;32.63;;;;;;;8.98;56.87;100202.94;5031541;28;20419;-69
2022/01/06 06:20:04;;;;;;;36.08;31.60;;;;;;;9.26;56.16;100205.03;5030451;28;20418;-69
2022/01/06 06:22:32;;;;;;;37.50;31.25;;;;;;;10.14;54.28;100216.78;5031204;28;20414;-69
2022/01/06 06:24:59;;;;;;;34.88;30.63;;;;;;;10.62;52.47;100213.34;5031409;28;20414;-69
2022/01/06 06:27:26;;;;;;;33.67;29.98;;;;;;;11.21;51.22;100217.59;5030822;28;20528;-69
2022/01/06 06:29:53;;;;;;;34.85;31.05;;;;;;;11.91;49.06;100208.44;5031317;28;20489;-69
2022/01/06 06:32:20;;;;;;;35.85;30.65;;;;;;;12.36;48.13;100213.72;5031229;28;20418;-71
2022/01/06 06:34:47;;;;;;;31.73;28.30;;;;;;;13.16;46.08;100223.53;5031201;28;20514;-70
2022/01/06 06:37:15;;;;;;;29.70;26.17;;;;;;;13.75;44.22;100221.88;5030880;28;20504;-69
2022/01/06 06:39:43;;;;;;;31.25;27.08;;;;;;;14.78;41.89;100237.66;5030650;28;20927;-69
2022/01/06 06:42:10;;;;;;;29.58;26.48;;;;;;;14.06;43.03;100242.63;5030765;28;20402;-69
2022/01/06 06:44:37;;;;;;;29.05;26.05;;;;;;;14.82;41.34;100259.47;5030882;28;20446;-69
2022/01/06 06:47:04;;;;;;;30.17;27.08;;;;;;;15.47;40.14;100252.41;5030934;28;20516;-70
2022/01/06 06:49:31;;;;;;;31.98;28.52;;;;;;;15.28;40.30;100249.13;5031021;28;20513;-69
2022/01/06 06:51:58;;;;;;;30.45;27.15;;;;;;;15.08;40.65;100267.31;5030992;28;20417;-70
2022/01/06 06:54:27;;;;;;;33.75;30.23;;;;;;;14.55;41.42;100271.25;5030497;28;20789;-70
2022/01/06 06:56:55;;;;;;;35.33;31.67;;;;;;;13.22;43.84;100270.78;5030473;28;20912;-70
2022/01/06 06:59:22;;;;;;;39.72;32.65;;;;;;;13.03;44.55;100287.75;5030483;28;20417;-70
2022/01/06 07:01:49;;;;;;;42.83;35.88;;;;;;;12.29;46.32;100294.16;5030224;28;20919;-70
2022/01/06 07:04:16;;;;;;;46.78;38.08;;;;;;;11.57;48.29;100292.03;5030410;28;20912;-70
2022/01/06 07:06:43;;;;;;;50.10;39.10;;;;;;;11.31;49.10;100291.81;5030480;28;20430;-70
2022/01/06 07:09:10;;;;;;;45.33;38.00;;;;;;;11.37;49.17;100306.31;5030283;28;20424;-69
2022/01/06 07:11:37;;;;;;;46.22;37.92;;;;;;;11.11;49.73;100301.63;5030231;28;20505;-70
2022/01/06 07:14:05;;;;;;;45.58;37.55;;;;;;;11.00;50.14;100288.50;5030166;28;20414;-70
2022/01/06 07:16:32;;;;;;;43.28;37.28;;;;;;;10.86;50.63;100310.97;5030360;28;20418;-70
2022/01/06 07:18:59;;;;;;;43.60;38.50;;;;;;;10.83;50.59;100305.94;5030142;28;20501;-70
2022/01/06 07:21:26;;;;;;;50.53;41.83;;;;;;;10.52;51.75;100321.94;5030331;28;20578;-70
2022/01/06 07:23:53;;;;;;;52.00;43.45;;;;;;;10.49;51.90;100322.22;5029940;28;20497;-70
2022/01/06 07:26:20;;;;;;;61.70;51.38;;;;;;;10.41;52.18;100335.28;5029560;28;20445;-70
2022/01/06 07:28:47;;;;;;;63.42;51.25;;;;;;;10.56;51.79;100341.03;5029779;28;20414;-70
2022/01/06 07:31:15;;;;;;;64.13;53.78;;;;;;;10.64;51.59;100335.88;5029758;28;20792;-69
2022/01/06 07:33:42;;;;;;;65.68;56.35;;;;;;;10.37;52.76;100336.53;5029707;28;20450;-70
2022/01/06 07:36:09;;;;;;;58.85;50.88;;;;;;;10.52;52.38;100352.88;5029901;28;20501;-70
2022/01/06 07:38:36;;;;;;;46.22;41.22;;;;;;;10.04;53.24;100338.50;5029928;28;20792;-70
2022/01/06 07:41:03;;;;;;;50.42;42.13;;;;;;;9.87;54.12;100353.16;5029385;28;20505;-70
2022/01/06 07:43:30;;;;;;;44.03;37.15;;;;;;;10.23;53.66;100350.94;5029613;28;20908;-70
2022/01/06 07:45:57;;;;;;;42.47;36.58;;;;;;;9.92;54.25;100345.66;5029902;28;20419;-70
2022/01/06 07:48:36;;;;;;;44.58;35.72;;;;;;;9.97;54.28;100358.50;5029477;28;20966;-70
2022/01/06 07:51:04;;;;;;;45.47;37.67;;;;;;;10.51;53.24;100360.00;5029480;28;20796;-70
2022/01/06 07:53:31;;;;;;;44.00;36.85;;;;;;;10.67;52.78;100356.81;5029436;28;20488;-70
2022/01/06 07:55:58;;;;;;;44.10;38.30;;;;;;;10.70;52.68;100361.00;5029503;28;20449;-70
2022/01/06 07:58:25;;;;;;;43.58;38.88;;;;;;;10.63;52.77;100356.25;5029527;28;20410;-70
2022/01/06 08:00:52;;;;;;;40.67;36.25;;;;;;;10.73;52.53;100360.75;5029306;28;20982;-69
2022/01/06 08:03:19;;;;;;;37.15;33.25;;;;;;;10.48;53.27;100370.84;5028975;28;20418;-69
2022/01/06 08:05:47;;;;;;;40.50;36.10;;;;;;;10.65;52.95;100373.84;5029357;28;20501;-70
2022/01/06 08:08:14;;;;;;;45.88;40.83;;;;;;;10.82;52.22;100376.63;5029497;28;20804;-68
2022/01/06 08:10:41;;;;;;;43.75;39.13;;;;;;;10.76;52.56;100371.06;5029615;28;20418;-71
2022/01/06 08:13:08;;;;;;;50.45;44.10;;;;;;;10.79;53.10;100376.09;5029384;28;20824;-70
2022/01/06 08:15:35;;;;;;;51.97;45.55;;;;;;;11.03;52.45;100379.19;5044544;28;20585;-70
2022/01/06 08:18:02;;;;;;;50.67;45.28;;;;;;;11.20;51.96;100398.88;5029187;28;20509;-70
2022/01/06 08:20:29;;;;;;;51.20;45.55;;;;;;;11.30;51.55;100395.41;5044293;28;20453;-69
2022/01/06 08:22:57;;;;;;;42.25;36.47;;;;;;;11.34;51.57;100407.41;5029521;28;20437;-70
2022/01/06 08:25:24;;;;;;;45.35;37.95;;;;;;;11.10;52.11;100418.41;5028955;28;20425;-69
2022/01/06 08:27:51;;;;;;;37.53;31.70;;;;;;;11.61;51.39;100427.91;5028891;28;20430;-70
2022/01/06 08:30:18;;;;;;;31.98;25.98;;;;;;;11.10;52.30;100424.53;5028976;28;20419;-70
2022/01/06 08:32:45;;;;;;;37.35;28.25;;;;;;;11.67;51.57;100439.78;5029015;28;20450;-70
2022/01/06 08:35:12;;;;;;;37.87;29.37;;;;;;;11.96;50.84;100439.75;5029002;28;20501;-69
2022/01/06 08:37:39;;;;;;;37.97;29.83;;;;;;;11.64;51.41;100443.56;5029005;28;20505;-70
2022/01/06 08:40:10;;;;;;;36.75;30.35;;;;;;;11.75;51.56;100458.47;5029234;28;20421;-70
2022/01/06 08:42:37;;;;;;;40.90;31.90;;;;;;;12.01;51.38;100450.78;5011581;28;20425;-70
2022/01/06 08:45:05;;;;;;;38.67;30.40;;;;;;;12.09;51.26;100450.09;5032037;28;20453;-69
2022/01/06 08:47:32;;;;;;;39.05;28.65;;;;;;;12.10;50.95;100455.22;5048352;28;20832;-70
2022/01/06 08:49:59;;;;;;;51.20;37.95;;;;;;;12.13;51.21;100462.09;5033557;28;20548;-69
2022/01/06 08:52:26;;;;;;;43.65;35.15;;;;;;;12.45;50.96;100456.41;5033051;28;20499;-69
2022/01/06 08:54:53;;;;;;;111.15;78.07;;;;;;;12.65;50.12;100462.44;5032850;28;20420;-69
2022/01/06 08:57:22;;;;;;;159.60;113.27;;;;;;;12.90;49.49;100455.63;5033494;28;20587;-69
2022/01/06 08:59:49;;;;;;;102.47;73.72;;;;;;;12.71;50.27;100461.03;5032239;28;20410;-69
2022/01/06 09:02:16;;;;;;;53.40;45.93;;;;;;;12.82;49.86;100459.03;5032353;28;20858;-71
2022/01/06 09:04:43;;;;;;;37.40;31.43;;;;;;;12.74;50.04;100464.25;5032430;28;20497;-70
2022/01/06 09:07:10;;;;;;;29.70;26.07;;;;;;;12.80;49.87;100466.31;5032328;28;20881;-70
2022/01/06 09:09:39;;;;;;;32.00;25.30;;;;;;;12.87;49.74;100471.88;5032469;28;20509;-70
2022/01/06 09:12:07;;;;;;;29.88;22.48;;;;;;;13.00;49.56;100476.84;5032748;28;21196;-70
2022/01/06 09:14:36;;;;;;;25.27;20.10;;;;;;;12.98;49.54;100479.66;5032816;28;20425;-70
2022/01/06 09:17:03;;;;;;;23.23;18.75;;;;;;;13.00;49.69;100485.66;5014771;28;20954;-70
2022/01/06 09:19:30;;;;;;;25.50;20.23;;;;;;;13.21;49.08;100480.06;5032749;28;20442;-70
2022/01/06 09:21:56;;;;;;;28.33;20.10;;;;;;;12.98;49.68;100476.16;5015197;28;20414;-70
2022/01/06 09:24:23;;;;;;;29.80;21.02;;;;;;;13.14;49.22;100481.66;5032414;28;20862;-69
2022/01/06 09:26:50;;;;;;;24.83;20.15;;;;;;;12.64;50.16;100484.72;5032952;28;20414;-70
2022/01/06 09:29:17;;;;;;;26.60;20.85;;;;;;;12.74;50.38;100474.88;5032205;28;20414;-70
2022/01/06 09:31:46;;;;;;;27.88;21.65;;;;;;;12.93;49.96;100479.25;5032208;28;20800;-70
2022/01/06 09:34:13;;;;;;;29.23;21.63;;;;;;;13.02;50.01;100482.88;5031460;28;20521;-69
2022/01/06 09:36:41;;;;;;;26.13;20.83;;;;;;;13.16;49.67;100484.19;5031954;28;20915;-69
2022/01/06 09:39:11;;;;;;;26.20;21.13;;;;;;;13.03;50.27;100479.19;5032012;28;20410;-69
2022/01/06 09:41:38;;;;;;;26.58;21.75;;;;;;;12.84;50.54;100488.13;5031960;28;20916;-69
2022/01/06 09:44:07;;;;;;;23.50;20.05;;;;;;;12.99;50.51;100489.28;5032435;28;20489;-70
2022/01/06 09:46:34;;;;;;;20.88;18.70;;;;;;;13.01;50.55;100499.78;5032293;28;20521;-69
2022/01/06 09:49:03;;;;;;;25.45;19.13;;;;;;;13.28;50.02;100500.75;5031778;28;20438;-69
2022/01/06 09:51:31;;;;;;;26.53;19.67;;;;;;;13.05;50.73;100497.69;5031772;28;20510;-69
2022/01/06 09:54:01;;;;;;;23.23;19.27;;;;;;;13.40;49.78;100504.91;5032136;28;20589;-69
2022/01/06 09:56:29;;;;;;;23.95;18.73;;;;;;;13.50;49.53;100510.97;5031602;28;20954;-69
2022/01/06 09:58:56;;;;;;;24.25;17.70;;;;;;;13.37;49.57;100514.03;5031755;28;20425;-69
2022/01/06 10:01:24;;;;;;;23.35;18.60;;;;;;;13.78;48.98;100513.59;5031688;28;20424;-69
2022/01/06 10:03:52;;;;;;;25.33;18.90;;;;;;;13.76;48.38;100510.25;5031765;28;20426;-69
2022/01/06 10:06:22;;;;;;;20.70;16.52;;;;;;;13.66;48.64;100506.81;5031901;28;20462;-70
2022/01/06 10:08:55;;;;;;;24.55;19.65;;;;;;;13.79;48.54;100517.94;5032095;28;20441;-71
2022/01/06 10:11:25;;;;;;;26.50;20.70;;;;;;;13.88;48.13;100518.84;5031558;28;20780;-69
2022/01/06 10:13:58;;;;;;;24.75;18.60;;;;;;;13.50;48.98;100516.31;5031330;28;20426;-71
2022/01/06 10:16:28;;;;;;;25.42;19.77;;;;;;;13.72;48.44;100525.69;5031558;28;20442;-69
2022/01/06 10:19:01;;;;;;;16.92;14.35;;;;;;;13.54;48.58;100522.16;5031641;28;20407;-71
2022/01/06 10:21:36;;;;;;;19.80;15.75;;;;;;;13.41;48.84;100528.69;5031249;28;20493;-72
2022/01/06 10:24:09;;;;;;;21.75;16.92;;;;;;;13.17;49.67;100541.69;5031534;28;20406;-71
2022/01/06 10:26:37;;;;;;;15.43;13.05;;;;;;;13.28;49.21;100538.84;5031218;28;20497;-71
2022/01/06 10:29:08;;;;;;;16.73;13.52;;;;;;;13.16;49.32;100535.56;5013505;28;20788;-71
2022/01/06 10:31:35;;;;;;;22.88;13.77;;;;;;;13.52;48.35;100538.28;5031058;28;20509;-71
2022/01/06 10:34:08;;;;;;;19.45;14.02;;;;;;;13.43;48.31;100542.69;5031200;28;20955;-71
2022/01/06 10:36:38;;;;;;;18.35;14.40;;;;;;;13.77;47.56;100547.38;5030932;28;20995;-71
2022/01/06 10:39:08;;;;;;;18.08;16.00;;;;;;;13.67;47.52;100545.78;5030858;28;20453;-70
2022/01/06 10:41:36;;;;;;;21.80;19.50;;;;;;;13.60;47.24;100558.84;5030670;28;20781;-71
2022/01/06 10:44:04;;;;;;;18.73;12.10;;;;;;;13.61;46.95;100555.19;5030680;28;20505;-71
2022/01/06 10:46:33;;;;;;;15.52;10.05;;;;;;;13.59;46.57;100558.00;5030697;28;20505;-71
2022/01/06 10:49:04;;;;;;;15.57;8.90;;;;;;;13.03;47.27;100564.31;5013058;28;20513;-71
2022/01/06 10:51:37;;;;;;;14.10;8.33;;;;;;;13.36;46.40;100557.59;5030422;28;20509;-71
2022/01/06 10:54:05;;;;;;;13.25;8.73;;;;;;;12.95;47.23;100561.53;5030593;28;20943;-71
2022/01/06 10:56:33;;;;;;;14.75;8.27;;;;;;;13.12;46.79;100566.09;5030770;28;20418;-71
2022/01/06 10:59:00;;;;;;;14.80;9.50;;;;;;;13.30;46.20;100566.19;5030169;28;20441;-70
2022/01/06 11:01:32;;;;;;;16.60;10.93;;;;;;;13.35;45.97;100576.38;5030463;28;20509;-71
2022/01/06 11:03:59;;;;;;;11.13;8.93;;;;;;;13.40;45.53;100574.06;5030556;28;20927;-71
2022/01/06 11:06:26;;;;;;;13.48;8.13;;;;;;;13.53;45.00;100571.91;5030020;28;20422;-71
2022/01/06 11:08:55;;;;;;;13.40;8.77;;;;;;;13.60;44.97;100575.66;5030358;28;20517;-71
2022/01/06 11:11:32;;;;;;;11.65;8.57;;;;;;;13.76;44.53;100577.63;5029749;28;20884;-70
2022/01/06 11:13:59;;;;;;;19.45;14.38;;;;;;;13.97;44.05;100585.34;5030611;28;20418;-71
2022/01/06 11:16:26;;;;;;;14.57;11.20;;;;;;;13.80;43.87;100581.66;5030203;28;21254;-72
2022/01/06 11:18:55;;;;;;;11.17;9.10;;;;;;;13.93;43.62;100589.28;5030439;28;20414;-71
2022/01/06 11:21:25;;;;;;;22.30;17.52;;;;;;;14.17;42.88;100588.69;5030249;28;20441;-71
2022/01/06 11:24:04;;;;;;;14.38;11.85;;;;;;;14.03;42.83;100586.56;5030346;28;20512;-71